Time;durP1;ratioP1;P1;durP2;ratioP2;P2;SDS_P1;SDS_P2;PMS_P1;PMS_P2;Temp;Humidity;BMP_temperature;BMP_pressure;BME280_temperature;BME280_humidity;BME280_pressure;Samples;Min_cycle;Max_cycle;Signal;HPM_P1;HPM_P2
2022/01/12 00:02:03;;;;;;;;;;;-6.10;95.60;;;;;;5018093;28;19909;-88
2022/01/12 00:04:29;;;;;;;;;;;-6.20;95.00;;;;;;5017297;28;19909;-89
2022/01/12 00:06:55;;;;;;;;;;;-6.20;95.20;;;;;;5017900;28;19931;-89
2022/01/12 00:09:20;;;;;;;;;;;-6.30;95.90;;;;;;5017944;28;19913;-88
2022/01/12 00:11:46;;;;;;;;;;;-6.30;96.60;;;;;;5035269;28;20376;-88
2022/01/12 00:14:11;;;;;;;;;;;-6.20;96.30;;;;;;5020980;28;19913;-89
2022/01/12 00:16:41;;;;;;;;;;;-6.30;96.10;;;;;;5055308;28;20368;-88
2022/01/12 00:19:09;;;;;;;;;;;-6.30;96.30;;;;;;5037658;28;20015;-88
2022/01/12 00:21:35;;;;;;;;;;;-6.30;96.10;;;;;;5037269;28;19927;-88
2022/01/12 00:24:00;;;;;;;;;;;-6.20;96.20;;;;;;5037615;28;19912;-88
2022/01/12 00:34:27;;;;;;;;;;;-6.40;95.80;;;;;;5055240;28;19962;-88
2022/01/12 00:36:54;;;;;;;;;;;-6.40;95.60;;;;;;5037655;28;20272;-88
2022/01/12 00:39:20;;;;;;;;;;;-6.40;95.20;;;;;;5038957;28;19916;-88
2022/01/12 00:41:48;;;;;;;;;;;-6.50;95.20;;;;;;5038585;28;20372;-88
2022/01/12 00:44:22;;;;;;;;;;;-6.50;95.80;;;;;;5038203;28;20378;-89
2022/01/12 00:46:49;;;;;;;;;;;-6.50;95.80;;;;;;5036715;28;19916;-88
2022/01/12 00:49:17;;;;;;;;;;;-6.40;96.30;;;;;;5037994;28;20430;-88
2022/01/12 00:51:43;;;;;;;;;;;-6.40;96.50;;;;;;5037764;28;19924;-88
2022/01/12 00:54:14;;;;;;;;;;;-6.40;96.00;;;;;;5037407;28;19913;-88
2022/01/12 00:56:40;;;;;;;;;;;-6.40;95.60;;;;;;5037512;28;19909;-88
2022/01/12 00:59:08;;;;;;;;;;;-6.40;95.50;;;;;;5036876;28;20282;-89
2022/01/12 01:01:34;;;;;;;;;;;-6.50;95.60;;;;;;5037659;28;20082;-88
2022/01/12 01:04:02;;;;;;;;;;;-6.50;95.80;;;;;;5037290;28;20031;-88
2022/01/12 01:06:30;;;;;;;;;;;-6.60;96.00;;;;;;5036690;28;19909;-88
2022/01/12 01:08:55;;;;;;;;;;;-6.60;96.20;;;;;;5054989;28;20003;-88
2022/01/12 01:11:23;;;;;;;;;;;-6.60;95.80;;;;;;5037213;28;19980;-89
2022/01/12 01:13:59;;;;;;;;;;;-6.60;95.90;;;;;;5037153;28;19975;-88
2022/01/12 01:16:46;;;;;;;;;;;-6.60;96.10;;;;;;5054891;28;19913;-88
2022/01/12 01:27:25;;;;;;;;;;;-6.70;95.70;;;;;;5059288;28;19916;-88
2022/01/12 01:29:53;;;;;;;;;;;-6.70;95.90;;;;;;5050523;28;19917;-88
2022/01/12 01:32:23;;;;;;;;;;;-6.80;95.70;;;;;;5077095;28;19920;-89
2022/01/12 01:34:49;;;;;;;;;;;-6.80;95.30;;;;;;5059868;28;19908;-89
2022/01/12 01:37:16;;;;;;;;;;;-6.90;95.60;;;;;;5059380;28;19893;-88
2022/01/12 01:39:41;;;;;;;;;;;-7.00;95.70;;;;;;5046459;28;20031;-88
2022/01/12 01:42:17;;;;;;;;;;;-7.00;95.90;;;;;;5041313;28;19956;-88
2022/01/12 01:55:25;;;;;;;;;;;-7.10;96.70;;;;;;5058313;28;19920;-88
2022/01/12 01:57:53;;;;;;;;;;;-7.10;96.80;;;;;;5040570;28;19909;-88
2022/01/12 02:00:23;;;;;;;;;;;-7.10;96.50;;;;;;5028000;28;19914;-88
2022/01/12 02:02:50;;;;;;;;;;;-7.10;96.40;;;;;;5020072;28;19916;-88
2022/01/12 02:05:16;;;;;;;;;;;-7.10;96.50;;;;;;5019868;28;19913;-88
2022/01/12 02:07:42;;;;;;;;;;;-7.20;96.10;;;;;;5020166;28;19909;-88
2022/01/12 02:10:08;;;;;;;;;;;-7.20;96.60;;;;;;5020131;28;19913;-88
2022/01/12 02:12:36;;;;;;;;;;;-7.30;96.40;;;;;;5019691;28;20027;-88
2022/01/12 02:15:03;;;;;;;;;;;-7.30;96.50;;;;;;5020053;28;19918;-88
2022/01/12 02:17:35;;;;;;;;;;;-7.20;96.60;;;;;;5020035;28;19909;-88
2022/01/12 02:35:15;;;;;;;;;;;-7.20;96.30;;;;;;5037847;28;19916;-88
2022/01/12 02:36:33;;;;;;;;;;;-7.40;95.30;;;;;;5037365;28;19991;-88
2022/01/12 02:41:43;;;;;;;;;;;-7.40;95.50;;;;;;5045191;28;20410;-88
2022/01/12 02:54:43;;;;;;;;;;;-7.60;95.10;;;;;;5056439;28;20333;-88
2022/01/12 02:57:08;;;;;;;;;;;-7.60;95.40;;;;;;5038799;28;20002;-88
2022/01/12 02:59:34;;;;;;;;;;;-7.60;94.50;;;;;;5038690;28;19956;-88
2022/01/12 03:08:13;;;;;;;;;;;-7.70;95.30;;;;;;4956291;29;19915;-88
2022/01/12 03:10:39;;;;;;;;;;;-7.70;94.70;;;;;;5020707;28;19921;-88
2022/01/12 03:13:05;;;;;;;;;;;-7.60;94.10;;;;;;5038628;28;19913;-88
2022/01/12 03:15:38;;;;;;;;;;;-7.60;92.60;;;;;;5038648;28;19917;-88
2022/01/12 03:18:04;;;;;;;;;;;-7.80;92.80;;;;;;5038627;28;19913;-88
2022/01/12 03:20:29;;;;;;;;;;;-7.80;92.70;;;;;;5038725;28;19979;-88
2022/01/12 03:22:55;;;;;;;;;;;-7.80;93.80;;;;;;5056463;28;20011;-88
2022/01/12 03:25:20;;;;;;;;;;;-7.80;93.20;;;;;;5056187;28;20351;-88
2022/01/12 03:27:48;;;;;;;;;;;-7.80;93.50;;;;;;5038832;28;20370;-88
2022/01/12 03:30:15;;;;;;;;;;;-8.00;93.20;;;;;;5038542;28;19920;-88
2022/01/12 03:32:48;;;;;;;;;;;-8.00;93.10;;;;;;5038491;28;19996;-88
2022/01/12 03:35:35;;;;;;;;;;;-8.00;93.50;;;;;;5038247;28;19913;-88
2022/01/12 03:40:43;;;;;;;;;;;-8.10;94.40;;;;;;5056524;28;19962;-88
2022/01/12 03:43:09;;;;;;;;;;;-8.10;94.40;;;;;;5038341;28;20372;-88
2022/01/12 03:45:34;;;;;;;;;;;-8.10;94.70;;;;;;5037692;28;19909;-90
2022/01/12 03:48:00;;;;;;;;;;;-8.10;94.60;;;;;;5038717;28;19916;-88
2022/01/12 03:50:26;;;;;;;;;;;-8.10;94.40;;;;;;5038163;28;19983;-88
2022/01/12 03:52:51;;;;;;;;;;;-8.10;94.00;;;;;;5038359;28;20455;-88
2022/01/12 03:55:17;;;;;;;;;;;-8.20;93.40;;;;;;5038347;28;20295;-88
2022/01/12 03:57:42;;;;;;;;;;;-8.20;94.30;;;;;;5038106;28;19916;-88
2022/01/12 04:00:08;;;;;;;;;;;-8.20;94.40;;;;;;5037965;28;20274;-89
2022/01/12 04:02:34;;;;;;;;;;;-8.20;94.00;;;;;;5037851;28;19909;-88
2022/01/12 04:10:17;;;;;;;;;;;-8.20;94.20;;;;;;5024389;28;20295;-88
2022/01/12 04:12:42;;;;;;;;;;;-8.20;94.10;;;;;;5037893;28;19913;-88
2022/01/12 04:15:08;;;;;;;;;;;-8.20;94.20;;;;;;5037377;28;19963;-88
2022/01/12 04:17:34;;;;;;;;;;;-8.20;94.50;;;;;;5037795;28;19966;-88
2022/01/12 04:20:02;;;;;;;;;;;-8.10;93.80;;;;;;5055303;28;19925;-88
2022/01/12 04:25:13;;;;;;;;;;;-8.20;92.20;;;;;;5057441;28;19916;-88
2022/01/12 04:27:39;;;;;;;;;;;-8.30;92.10;;;;;;5038964;28;19908;-88
2022/01/12 04:30:05;;;;;;;;;;;-8.40;92.90;;;;;;5037216;28;19913;-88
2022/01/12 04:32:34;;;;;;;;;;;-8.50;92.20;;;;;;5054994;28;20368;-88
2022/01/12 04:35:02;;;;;;;;;;;-8.60;92.50;;;;;;5037435;28;19909;-88
2022/01/12 04:37:28;;;;;;;;;;;-8.60;92.80;;;;;;5037205;28;19912;-88
2022/01/12 04:39:54;;;;;;;;;;;-8.60;93.40;;;;;;5037350;28;19912;-88
2022/01/12 04:42:19;;;;;;;;;;;-8.70;92.70;;;;;;5037130;28;19931;-88
2022/01/12 04:44:45;;;;;;;;;;;-8.80;92.60;;;;;;5037577;28;19940;-88
2022/01/12 04:47:27;;;;;;;;;;;-8.80;92.20;;;;;;5037479;28;19912;-88
2022/01/12 04:49:52;;;;;;;;;;;-8.80;92.90;;;;;;5037168;28;19913;-88
2022/01/12 04:52:18;;;;;;;;;;;-8.90;93.10;;;;;;5037145;28;19920;-88
2022/01/12 04:54:44;;;;;;;;;;;-8.90;93.10;;;;;;5037401;28;20267;-88
2022/01/12 04:57:09;;;;;;;;;;;-9.00;92.50;;;;;;5037930;28;19967;-88
2022/01/12 04:59:40;;;;;;;;;;;-9.00;92.00;;;;;;5058822;28;19912;-88
2022/01/12 05:06:24;;;;;;;;;;;-9.10;92.80;;;;;;5041533;28;19913;-88
2022/01/12 05:07:57;;;;;;;;;;;-9.20;91.00;;;;;;5059260;28;20327;-88
2022/01/12 05:12:57;;;;;;;;;;;-9.40;90.20;;;;;;5059645;28;19913;-88
2022/01/12 05:15:29;;;;;;;;;;;-9.40;90.50;;;;;;5040667;28;19917;-88
2022/01/12 05:17:55;;;;;;;;;;;-9.40;90.30;;;;;;5041238;28;20043;-88
2022/01/12 05:20:22;;;;;;;;;;;-9.50;90.10;;;;;;5041110;28;19960;-88
2022/01/12 05:22:47;;;;;;;;;;;-9.60;90.70;;;;;;5041888;28;19916;-88
2022/01/12 05:25:13;;;;;;;;;;;-9.70;91.10;;;;;;5059055;28;19955;-88
2022/01/12 05:27:38;;;;;;;;;;;-9.60;92.30;;;;;;5040824;28;19952;-89
2022/01/12 05:30:04;;;;;;;;;;;-9.50;92.50;;;;;;5040957;28;19919;-88
2022/01/12 05:32:30;;;;;;;;;;;-9.50;91.90;;;;;;5040817;28;20012;-87
2022/01/12 05:34:58;;;;;;;;;;;-9.40;92.20;;;;;;5041172;28;19909;-88
2022/01/12 05:37:25;;;;;;;;;;;-9.40;91.50;;;;;;5040622;28;19920;-88
2022/01/12 05:39:50;;;;;;;;;;;-9.30;91.50;;;;;;5041624;28;19988;-88
2022/01/12 05:42:16;;;;;;;;;;;-9.30;91.30;;;;;;5042014;28;19955;-88
2022/01/12 05:44:42;;;;;;;;;;;-9.20;91.60;;;;;;5046243;28;19944;-88
2022/01/12 05:47:18;;;;;;;;;;;-9.30;91.30;;;;;;5047427;28;19908;-88
2022/01/12 05:49:45;;;;;;;;;;;-9.30;91.20;;;;;;5047447;28;19939;-88
2022/01/12 05:52:11;;;;;;;;;;;-9.30;91.60;;;;;;5047185;28;19922;-89
2022/01/12 05:54:37;;;;;;;;;;;-9.20;91.60;;;;;;5045358;28;19909;-88
2022/01/12 05:57:20;;;;;;;;;;;-9.20;91.60;;;;;;5044247;28;19963;-89
2022/01/12 05:59:46;;;;;;;;;;;-9.10;92.40;;;;;;5040417;28;19909;-89
2022/01/12 06:02:11;;;;;;;;;;;-9.00;91.30;;;;;;5040336;28;20471;-88
2022/01/12 06:04:45;;;;;;;;;;;-9.00;91.20;;;;;;5040188;28;19956;-88
2022/01/12 06:07:13;;;;;;;;;;;-9.00;91.20;;;;;;5036920;28;20000;-89
2022/01/12 06:09:39;;;;;;;;;;;-9.00;90.20;;;;;;5025822;28;20006;-88
2022/01/12 06:12:26;;;;;;;;;;;-9.00;90.60;;;;;;5020428;28;19913;-90
2022/01/12 06:14:55;;;;;;;;;;;-9.10;91.30;;;;;;5037252;28;19913;-89
2022/01/12 06:17:22;;;;;;;;;;;-9.10;91.00;;;;;;5026998;28;20459;-89
2022/01/12 06:19:50;;;;;;;;;;;-9.00;91.50;;;;;;5039475;28;19921;-89
2022/01/12 06:22:19;;;;;;;;;;;-9.10;90.50;;;;;;5039562;28;20075;-88
2022/01/12 06:24:57;;;;;;;;;;;;;;;;;;;;;
2022/01/12 06:27:50;;;;;;;;;;;-9.10;91.40;;;;;;5066218;28;19980;-87
2022/01/12 06:33:37;;;;;;;;;;;-9.10;90.80;;;;;;4983192;28;19978;-89
2022/01/12 06:36:17;;;;;;;;;;;-9.10;91.90;;;;;;5035507;28;19913;-89
2022/01/12 06:38:46;;;;;;;;;;;-9.10;91.30;;;;;;5040205;28;19944;-89
2022/01/12 06:41:22;;;;;;;;;;;-9.00;91.70;;;;;;5040104;28;19954;-91
2022/01/12 06:44:15;;;;;;;;;;;-9.00;92.10;;;;;;5033080;28;20004;-88
2022/01/12 06:47:07;;;;;;;;;;;-8.90;92.20;;;;;;5031450;28;19913;-89
2022/01/12 06:49:37;;;;;;;;;;;-8.80;91.80;;;;;;5038157;28;19975;-89
2022/01/12 06:52:06;;;;;;;;;;;-8.90;91.90;;;;;;5022957;28;19967;-89
2022/01/12 06:55:52;;;;;;;;;;;-9.00;91.10;;;;;;5026290;28;19917;-89
2022/01/12 06:57:51;;;;;;;;;;;-9.00;91.40;;;;;;5050169;28;19960;-88
2022/01/12 07:00:26;;;;;;;;;;;-9.10;92.00;;;;;;5039226;28;19916;-88
2022/01/12 07:02:54;;;;;;;;;;;-9.10;92.00;;;;;;5027415;28;19913;-89
2022/01/12 07:05:19;;;;;;;;;;;-9.10;92.50;;;;;;5043452;28;19916;-89
2022/01/12 07:07:47;;;;;;;;;;;-9.10;91.40;;;;;;5033580;28;19913;-89
2022/01/12 07:10:32;;;;;;;;;;;;;;;;;;;;;
2022/01/12 07:12:58;;;;;;;;;;;-9.10;91.30;;;;;;5043219;28;20007;-90
2022/01/12 07:15:34;;;;;;;;;;;-9.10;91.30;;;;;;5038730;28;19952;-89
2022/01/12 07:18:03;;;;;;;;;;;-9.00;91.50;;;;;;5030284;28;19920;-89
2022/01/12 07:20:49;;;;;;;;;;;-9.10;90.60;;;;;;5021051;28;19964;-89
2022/01/12 07:23:27;;;;;;;;;;;;;;;;;;;;;
2022/01/12 07:26:01;;;;;;;;;;;-9.10;90.80;;;;;;5044964;28;20427;-90
2022/01/12 07:28:45;;;;;;;;;;;-9.10;91.70;;;;;;5040324;28;19920;-90
2022/01/12 07:31:46;;;;;;;;;;;-9.00;91.10;;;;;;5039875;28;19912;-90
2022/01/12 07:34:24;;;;;;;;;;;-9.00;91.30;;;;;;5056140;28;20011;-89
2022/01/12 07:36:57;;;;;;;;;;;-8.80;92.00;;;;;;5040729;28;19909;-89
2022/01/12 07:39:42;;;;;;;;;;;-8.80;91.10;;;;;;5054918;28;20038;-89
2022/01/12 07:42:12;;;;;;;;;;;-8.70;90.70;;;;;;5058807;28;19909;-89
2022/01/12 07:48:12;;;;;;;;;;;-8.80;88.80;;;;;;5050048;28;19920;-91
2022/01/12 07:50:50;;;;;;;;;;;-8.80;90.30;;;;;;5038432;28;19913;-90
2022/01/12 07:53:19;;;;;;;;;;;-8.90;90.10;;;;;;5036577;28;20007;-90
2022/01/12 07:55:50;;;;;;;;;;;-8.90;90.20;;;;;;5035891;28;20340;-91
2022/01/12 07:58:21;;;;;;;;;;;-8.90;90.00;;;;;;5035695;28;19909;-92
2022/01/12 08:01:04;;;;;;;;;;;-9.10;90.20;;;;;;5036883;28;19920;-90
2022/01/12 08:03:30;;;;;;;;;;;-9.00;90.20;;;;;;5055441;28;19924;-90
2022/01/12 08:05:57;;;;;;;;;;;-9.00;90.30;;;;;;5037409;28;20229;-90
2022/01/12 08:08:22;;;;;;;;;;;-9.00;90.40;;;;;;5037250;28;19963;-89
2022/01/12 08:10:48;;;;;;;;;;;-9.00;90.20;;;;;;5038059;28;19913;-89
2022/01/12 08:13:17;;;;;;;;;;;-9.00;89.90;;;;;;5037728;28;19913;-89
2022/01/12 08:15:43;;;;;;;;;;;-9.10;90.30;;;;;;5037539;28;19967;-90
2022/01/12 08:18:10;;;;;;;;;;;-9.10;90.60;;;;;;5038142;28;19909;-89
2022/01/12 08:20:36;;;;;;;;;;;-9.00;90.60;;;;;;5037986;28;19928;-91
2022/01/12 08:23:04;;;;;;;;;;;-9.00;90.30;;;;;;5037509;28;19912;-89
2022/01/12 08:25:30;;;;;;;;;;;-8.90;90.10;;;;;;5037514;28;19909;-89
2022/01/12 08:27:56;;;;;;;;;;;-8.90;90.10;;;;;;5037100;28;19954;-89
2022/01/12 08:30:28;;;;;;;;;;;-8.90;90.70;;;;;;5037411;28;19913;-89
2022/01/12 08:32:54;;;;;;;;;;;-8.80;89.90;;;;;;5037186;28;19916;-90
2022/01/12 08:35:20;;;;;;;;;;;-8.70;90.10;;;;;;5037005;28;19916;-89
2022/01/12 08:37:48;;;;;;;;;;;-8.70;88.80;;;;;;5037874;28;19963;-88
2022/01/12 08:40:17;;;;;;;;;;;-8.70;88.60;;;;;;5037369;28;20252;-89
2022/01/12 08:42:43;;;;;;;;;;;-8.60;89.20;;;;;;5037569;28;19953;-89
2022/01/12 08:45:19;;;;;;;;;;;-8.60;90.40;;;;;;5037287;28;19909;-88
2022/01/12 08:47:47;;;;;;;;;;;-8.50;89.60;;;;;;5037729;28;20126;-89
2022/01/12 08:50:22;;;;;;;;;;;-8.50;89.50;;;;;;5037557;28;19913;-89
2022/01/12 08:52:48;;;;;;;;;;;-8.40;89.10;;;;;;5038026;28;20302;-88
2022/01/12 08:55:20;;;;;;;;;;;-8.30;88.20;;;;;;5055118;28;19913;-90
2022/01/12 08:57:50;;;;;;;;;;;-8.30;86.80;;;;;;5038562;28;19909;-90
2022/01/12 09:00:17;;;;;;;;;;;-8.30;85.50;;;;;;5037457;28;19958;-90
2022/01/12 09:02:45;;;;;;;;;;;-8.30;85.80;;;;;;5038145;28;19909;-89
2022/01/12 09:05:14;;;;;;;;;;;-8.30;85.80;;;;;;5037748;28;19999;-90
2022/01/12 09:07:43;;;;;;;;;;;-8.30;86.30;;;;;;5037786;28;19908;-90
2022/01/12 09:10:12;;;;;;;;;;;-8.30;85.00;;;;;;5037955;28;19935;-90
2022/01/12 09:12:41;;;;;;;;;;;-8.50;84.40;;;;;;5037582;28;19966;-89
2022/01/12 09:15:17;;;;;;;;;;;-8.50;85.40;;;;;;5037823;28;19909;-90
2022/01/12 09:17:48;;;;;;;;;;;-8.60;85.90;;;;;;5038296;28;19988;-90
2022/01/12 09:20:14;;;;;;;;;;;-8.60;85.80;;;;;;5038446;28;19925;-90
2022/01/12 09:22:40;;;;;;;;;;;-8.50;86.90;;;;;;5037088;28;19909;-88
2022/01/12 09:25:09;;;;;;;;;;;-8.60;85.40;;;;;;5037055;28;19916;-89
2022/01/12 09:27:46;;;;;;;;;;;-8.50;84.80;;;;;;5038618;28;19960;-89
2022/01/12 09:30:22;;;;;;;;;;;;;;;;;;;;;
2022/01/12 09:32:51;;;;;;;;;;;-8.30;85.00;;;;;;5055632;28;19995;-89
2022/01/12 09:35:19;;;;;;;;;;;-8.40;85.10;;;;;;5036824;28;19908;-89
2022/01/12 09:37:44;;;;;;;;;;;-8.30;84.90;;;;;;5036599;28;20015;-90
2022/01/12 09:40:16;;;;;;;;;;;-8.30;85.20;;;;;;5038013;28;19981;-89
2022/01/12 09:42:42;;;;;;;;;;;-8.20;84.90;;;;;;5038291;28;19909;-89
2022/01/12 09:45:15;;;;;;;;;;;-8.10;85.30;;;;;;5041102;28;19909;-89
2022/01/12 09:47:44;;;;;;;;;;;-8.10;83.10;;;;;;5040833;28;20091;-91
2022/01/12 09:57:12;;;;;;;;;;;-8.20;83.80;;;;;;4966647;29;19917;-90
2022/01/12 10:06:17;;;;;;;;;;;-8.10;82.80;;;;;;5017638;28;19916;-89
2022/01/12 10:09:23;;;;;;;;;;;;;;;;;;;;;
2022/01/12 10:12:31;;;;;;;;;;;;;;;;;;;;;
2022/01/12 10:15:14;;;;;;;;;;;;;;;;;;;;;
2022/01/12 10:33:46;;;;;;;;;;;-8.20;79.10;;;;;;4975774;28;19914;-88
2022/01/12 10:36:22;;;;;;;;;;;-8.20;80.00;;;;;;5035575;28;19913;-90
2022/01/12 10:39:19;;;;;;;;;;;-8.10;80.80;;;;;;5039850;28;19916;-89
2022/01/12 10:45:19;;;;;;;;;;;-8.30;79.60;;;;;;5057681;28;19954;-89
2022/01/12 10:48:01;;;;;;;;;;;-8.30;80.10;;;;;;5040078;28;19955;-90
2022/01/12 10:50:38;;;;;;;;;;;-8.30;81.20;;;;;;5057429;28;19917;-90
2022/01/12 10:53:27;;;;;;;;;;;-8.20;80.60;;;;;;5024697;28;19952;-91
2022/01/12 10:56:40;;;;;;;;;;;-8.20;80.60;;;;;;5040357;28;19909;-90
2022/01/12 11:05:18;;;;;;;;;;;-8.10;79.40;;;;;;4959205;29;19950;-90
2022/01/12 11:14:56;;;;;;;;;;;-8.00;78.50;;;;;;4940080;29;20306;-90
2022/01/12 11:20:27;;;;;;;;;;;-8.00;78.30;;;;;;4956796;29;20429;-90
2022/01/12 11:23:15;;;;;;;;;;;-8.00;78.00;;;;;;4956451;29;20282;-90
2022/01/12 11:26:26;;;;;;;;;;;-7.90;78.30;;;;;;4984719;28;20004;-91
2022/01/12 11:32:31;;;;;;;;;;;-8.00;77.10;;;;;;5033858;28;19964;-90
2022/01/12 11:48:03;;;;;;;;;;;;;;;;;;;;;
2022/01/12 11:51:12;;;;;;;;;;;-8.30;73.10;;;;;;4961674;28;19919;-91
2022/01/12 12:03:51;;;;;;;;;;;;;;;;;;;;;
2022/01/12 12:12:39;;;;;;;;;;;-8.80;72.30;;;;;;4879773;29;19927;-93
2022/01/12 12:18:38;;;;;;;;;;;-8.90;73.80;;;;;;4881213;29;19919;-90
2022/01/12 12:21:34;;;;;;;;;;;-8.80;74.30;;;;;;4866008;29;19927;-92
2022/01/12 12:24:30;;;;;;;;;;;-8.80;74.10;;;;;;4972465;28;20111;-90
2022/01/12 12:30:22;;;;;;;;;;;-8.70;75.30;;;;;;4979265;28;19969;-92
2022/01/12 12:33:27;;;;;;;;;;;-8.70;73.40;;;;;;5027774;28;19909;-91
2022/01/12 12:35:52;;;;;;;;;;;-8.70;74.70;;;;;;5055301;28;19975;-89
2022/01/12 12:38:54;;;;;;;;;;;-8.70;73.70;;;;;;5036969;28;19913;-90
2022/01/12 12:44:28;;;;;;;;;;;-8.80;74.20;;;;;;5056304;28;19971;-91
2022/01/12 12:47:07;;;;;;;;;;;-8.80;74.50;;;;;;5040083;28;19990;-92
2022/01/12 12:49:43;;;;;;;;;;;-8.80;76.20;;;;;;5038154;28;19909;-90
2022/01/12 12:52:21;;;;;;;;;;;-8.80;76.70;;;;;;5038297;28;19913;-91
2022/01/12 12:54:49;;;;;;;;;;;-8.70;76.20;;;;;;5037744;28;19909;-88
2022/01/12 12:57:21;;;;;;;;;;;-8.90;77.20;;;;;;5038849;28;19909;-90
2022/01/12 13:00:07;;;;;;;;;;;-9.00;78.80;;;;;;5039442;28;19971;-89
2022/01/12 13:02:37;;;;;;;;;;;-9.10;81.40;;;;;;5036535;28;19913;-90
2022/01/12 13:05:04;;;;;;;;;;;-9.20;81.10;;;;;;5036920;28;19909;-89
2022/01/12 13:07:44;;;;;;;;;;;-9.20;79.40;;;;;;5037488;28;19913;-90
2022/01/12 13:10:15;;;;;;;;;;;-9.20;75.80;;;;;;5022247;28;20023;-90
2022/01/12 13:15:53;;;;;;;;;;;-9.30;75.40;;;;;;5042375;28;19962;-90
2022/01/12 13:18:42;;;;;;;;;;;-9.40;75.10;;;;;;5038315;28;19909;-90
2022/01/12 13:24:25;;;;;;;;;;;-9.30;75.80;;;;;;5059178;28;19959;-89
2022/01/12 13:26:57;;;;;;;;;;;-9.40;73.80;;;;;;5042593;28;19909;-91
2022/01/12 13:29:28;;;;;;;;;;;-9.30;75.00;;;;;;5042371;28;20417;-91
2022/01/12 13:31:57;;;;;;;;;;;-9.40;75.20;;;;;;5025098;28;20067;-91
2022/01/12 13:34:40;;;;;;;;;;;;;;;;;;;;;
2022/01/12 13:37:21;;;;;;;;;;;-9.50;73.90;;;;;;5046046;28;20012;-90
2022/01/12 13:40:10;;;;;;;;;;;-9.50;74.20;;;;;;5047954;28;19931;-90
2022/01/12 13:42:53;;;;;;;;;;;-9.60;74.10;;;;;;5022519;28;19916;-91
2022/01/12 13:45:25;;;;;;;;;;;-9.70;75.30;;;;;;5037273;28;19909;-91
2022/01/12 13:47:59;;;;;;;;;;;-9.70;73.90;;;;;;5040540;28;19953;-91
2022/01/12 13:50:31;;;;;;;;;;;-9.80;73.80;;;;;;5033177;28;19927;-90
2022/01/12 13:53:00;;;;;;;;;;;-9.90;74.20;;;;;;5068464;28;20248;-90
2022/01/12 13:55:33;;;;;;;;;;;-10.00;75.40;;;;;;5059090;28;19905;-91
2022/01/12 13:58:05;;;;;;;;;;;-10.00;75.70;;;;;;5062286;28;19905;-90
2022/01/12 14:00:36;;;;;;;;;;;-10.00;75.90;;;;;;5055838;28;19991;-92
2022/01/12 14:03:23;;;;;;;;;;;-10.10;75.50;;;;;;5048017;28;19936;-89
2022/01/12 14:05:58;;;;;;;;;;;-10.20;75.10;;;;;;5042257;28;19909;-89
2022/01/12 14:08:39;;;;;;;;;;;-10.20;75.50;;;;;;5034398;28;19920;-89
2022/01/12 14:11:12;;;;;;;;;;;-10.40;74.90;;;;;;5057183;28;19921;-90
2022/01/12 14:13:41;;;;;;;;;;;-10.40;75.50;;;;;;5030199;28;19995;-91
2022/01/12 14:16:46;;;;;;;;;;;-10.50;75.90;;;;;;5049015;28;19916;-92
2022/01/12 14:19:19;;;;;;;;;;;;;;;;;;;;;
2022/01/12 14:22:20;;;;;;;;;;;-10.60;77.00;;;;;;5045466;28;19987;-90
2022/01/12 14:25:04;;;;;;;;;;;-10.60;77.70;;;;;;5050814;28;19928;-91
2022/01/12 14:27:46;;;;;;;;;;;-10.50;78.50;;;;;;5037587;28;19925;-89
2022/01/12 14:30:15;;;;;;;;;;;-10.50;78.80;;;;;;5041316;28;20351;-88
2022/01/12 14:32:46;;;;;;;;;;;-10.40;78.90;;;;;;5044017;28;20361;-89
2022/01/12 14:35:15;;;;;;;;;;;-10.40;79.00;;;;;;5055083;28;19967;-89
2022/01/12 14:38:08;;;;;;;;;;;-10.30;78.30;;;;;;5043261;28;19943;-88
2022/01/12 14:40:36;;;;;;;;;;;-10.30;78.50;;;;;;5051431;28;19944;-89
2022/01/12 14:43:30;;;;;;;;;;;-10.30;79.20;;;;;;5037340;28;19921;-89
2022/01/12 14:46:13;;;;;;;;;;;-10.30;79.10;;;;;;5041288;28;20405;-90
2022/01/12 14:48:46;;;;;;;;;;;-10.30;79.30;;;;;;5054733;28;19909;-90
2022/01/12 14:51:15;;;;;;;;;;;-10.40;79.50;;;;;;5040248;28;19928;-89
2022/01/12 14:53:44;;;;;;;;;;;-10.50;79.20;;;;;;5051109;28;19917;-89
2022/01/12 14:56:28;;;;;;;;;;;-10.50;80.10;;;;;;5048868;28;19929;-88
2022/01/12 14:58:58;;;;;;;;;;;-10.50;80.90;;;;;;5041910;28;19917;-89
2022/01/12 15:01:26;;;;;;;;;;;-10.50;80.60;;;;;;5053038;28;20263;-90
2022/01/12 15:03:58;;;;;;;;;;;-10.50;81.30;;;;;;5038106;28;19916;-89
2022/01/12 15:06:30;;;;;;;;;;;-10.40;81.10;;;;;;5038684;28;19913;-88
2022/01/12 15:09:03;;;;;;;;;;;-10.50;80.80;;;;;;5056278;28;19913;-90
2022/01/12 15:11:28;;;;;;;;;;;-10.40;81.10;;;;;;5038452;28;19927;-90
2022/01/12 15:13:59;;;;;;;;;;;-10.50;80.90;;;;;;5057269;28;19993;-91
2022/01/12 15:16:25;;;;;;;;;;;-10.50;81.00;;;;;;5036309;28;19915;-89
2022/01/12 15:19:05;;;;;;;;;;;-10.50;81.20;;;;;;5039255;28;20003;-88
2022/01/12 15:21:37;;;;;;;;;;;-10.50;81.80;;;;;;5041405;28;19917;-89
2022/01/12 15:24:08;;;;;;;;;;;-10.50;82.40;;;;;;5034854;28;20397;-90
2022/01/12 15:26:35;;;;;;;;;;;-10.50;82.90;;;;;;5034685;28;20015;-90
2022/01/12 15:29:07;;;;;;;;;;;-10.40;83.00;;;;;;5031064;28;19916;-90
2022/01/12 15:31:49;;;;;;;;;;;-10.30;83.50;;;;;;5034987;28;19917;-91
2022/01/12 15:34:37;;;;;;;;;;;-10.30;83.10;;;;;;5016757;28;19988;-89
2022/01/12 15:37:35;;;;;;;;;;;-10.30;83.60;;;;;;5025595;28;19917;-92
2022/01/12 15:40:15;;;;;;;;;;;-10.20;83.20;;;;;;5019615;28;19916;-91
2022/01/12 15:42:44;;;;;;;;;;;-10.10;81.80;;;;;;5017746;28;19948;-91
2022/01/12 15:45:24;;;;;;;;;;;-10.10;82.10;;;;;;5013986;28;19921;-91
2022/01/12 15:47:52;;;;;;;;;;;-10.10;82.40;;;;;;5034003;28;19917;-90
2022/01/12 15:50:20;;;;;;;;;;;-10.10;83.10;;;;;;5030439;28;19921;-91
2022/01/12 15:52:52;;;;;;;;;;;-10.10;82.20;;;;;;5039525;28;19917;-91
2022/01/12 15:55:31;;;;;;;;;;;-10.00;82.10;;;;;;5034459;28;19960;-90
2022/01/12 15:58:00;;;;;;;;;;;-10.00;82.00;;;;;;5015886;28;19910;-90
2022/01/12 16:00:44;;;;;;;;;;;-10.00;82.30;;;;;;5025277;28;19940;-90
2022/01/12 16:03:23;;;;;;;;;;;;;;;;;;;;;
2022/01/12 16:06:25;;;;;;;;;;;;;;;;;;;;;
2022/01/12 16:08:53;;;;;;;;;;;-10.20;81.40;;;;;;5030241;28;20023;-91
2022/01/12 16:11:25;;;;;;;;;;;-10.20;82.30;;;;;;5041632;28;19976;-89
2022/01/12 16:14:03;;;;;;;;;;;-10.20;83.00;;;;;;5038245;28;19909;-89
2022/01/12 16:16:31;;;;;;;;;;;-10.20;83.70;;;;;;5030522;28;19929;-90
2022/01/12 16:18:58;;;;;;;;;;;-10.20;83.50;;;;;;5046822;28;19913;-90
2022/01/12 16:21:29;;;;;;;;;;;-10.30;83.40;;;;;;5046433;28;19913;-89
2022/01/12 16:24:21;;;;;;;;;;;-10.30;84.50;;;;;;5020881;28;19925;-89
2022/01/12 16:26:50;;;;;;;;;;;-10.30;85.10;;;;;;4998538;28;19913;-91
2022/01/12 16:29:16;;;;;;;;;;;-10.30;86.20;;;;;;5024130;28;19909;-91
2022/01/12 16:31:48;;;;;;;;;;;-10.20;86.50;;;;;;5034140;28;19924;-90
2022/01/12 16:34:18;;;;;;;;;;;-10.20;86.40;;;;;;5009521;28;20008;-89
2022/01/12 16:36:44;;;;;;;;;;;-10.10;86.40;;;;;;5018637;28;20001;-90
2022/01/12 16:39:12;;;;;;;;;;;-10.10;85.20;;;;;;5036924;28;19917;-90
2022/01/12 16:41:43;;;;;;;;;;;-10.10;85.00;;;;;;5019590;28;20044;-90
2022/01/12 16:44:09;;;;;;;;;;;-10.10;85.70;;;;;;5018485;28;20003;-90
2022/01/12 16:46:44;;;;;;;;;;;-10.10;86.20;;;;;;5036428;28;19937;-91
2022/01/12 16:49:10;;;;;;;;;;;-10.00;85.20;;;;;;5035169;28;19909;-90
2022/01/12 16:51:36;;;;;;;;;;;-10.10;85.40;;;;;;4999168;28;19917;-90
2022/01/12 16:54:02;;;;;;;;;;;-10.00;86.30;;;;;;5021711;28;19909;-90
2022/01/12 16:56:28;;;;;;;;;;;-10.10;86.50;;;;;;5005300;28;19948;-91
2022/01/12 16:58:55;;;;;;;;;;;-10.00;86.40;;;;;;5023332;28;19914;-91
2022/01/12 17:01:22;;;;;;;;;;;-10.00;86.50;;;;;;5004940;28;19913;-91
2022/01/12 17:03:51;;;;;;;;;;;-10.00;85.90;;;;;;5037161;28;19924;-90
2022/01/12 17:06:21;;;;;;;;;;;-10.00;85.20;;;;;;5036854;28;19949;-89
2022/01/12 17:08:54;;;;;;;;;;;-10.00;84.70;;;;;;5025479;28;20352;-90
2022/01/12 17:11:20;;;;;;;;;;;-10.10;84.30;;;;;;5013695;28;19924;-90
2022/01/12 17:13:51;;;;;;;;;;;-10.00;84.30;;;;;;5024196;28;19913;-90
2022/01/12 17:16:38;;;;;;;;;;;-10.10;85.20;;;;;;5024164;28;20550;-91
2022/01/12 17:19:12;;;;;;;;;;;-10.10;85.50;;;;;;5041089;28;19913;-91
2022/01/12 17:21:38;;;;;;;;;;;-10.10;85.80;;;;;;5018383;28;19910;-90
2022/01/12 17:24:10;;;;;;;;;;;-10.10;86.50;;;;;;5022579;28;19929;-89
2022/01/12 17:26:54;;;;;;;;;;;-10.10;86.90;;;;;;5040926;28;19936;-90
2022/01/12 17:29:24;;;;;;;;;;;-10.10;87.10;;;;;;5042514;28;19909;-89
2022/01/12 17:31:54;;;;;;;;;;;-10.20;84.80;;;;;;5041741;28;19925;-92
2022/01/12 17:34:22;;;;;;;;;;;-10.30;85.50;;;;;;5042078;28;19999;-91
2022/01/12 17:36:49;;;;;;;;;;;-10.30;87.00;;;;;;5024586;28;19918;-90
2022/01/12 17:39:16;;;;;;;;;;;-10.30;85.60;;;;;;5023920;28;20007;-90
2022/01/12 17:41:43;;;;;;;;;;;-10.30;84.20;;;;;;5024435;28;19913;-90
2022/01/12 17:44:21;;;;;;;;;;;-10.40;84.10;;;;;;5041656;28;19909;-91
2022/01/12 17:46:47;;;;;;;;;;;-10.40;83.10;;;;;;5024110;28;19956;-90
2022/01/12 17:49:16;;;;;;;;;;;-10.40;84.90;;;;;;5025094;28;19909;-90
2022/01/12 17:51:46;;;;;;;;;;;-10.40;83.10;;;;;;5037944;28;19972;-89
2022/01/12 17:54:14;;;;;;;;;;;-10.40;82.90;;;;;;5036399;28;19921;-91
2022/01/12 17:56:42;;;;;;;;;;;-10.40;83.10;;;;;;5014425;28;19920;-91
2022/01/12 17:59:10;;;;;;;;;;;-10.40;83.00;;;;;;5051379;28;19979;-90